Time;durP1;ratioP1;P1;durP2;ratioP2;P2;SDS_P1;SDS_P2;PMS_P1;PMS_P2;Temp;Humidity;BMP_temperature;BMP_pressure;BME280_temperature;BME280_humidity;BME280_pressure;Samples;Min_cycle;Max_cycle;Signal;HPM_P1;HPM_P2
2021/12/25 00:06:43;;;;;;;0.20;0.20;;;6.90;95.90;5.80;100459.00;;;;31438573;28;20318;-74
2021/12/25 00:21:45;;;;;;;0.20;0.20;;;7.00;95.70;5.60;100459.00;;;;31475926;28;20083;-74
2021/12/25 00:36:52;;;;;;;0.20;0.20;;;6.80;95.70;5.50;100455.00;;;;31468610;28;20151;-75
2021/12/25 00:51:54;;;;;;;0.50;0.50;;;6.70;95.60;5.40;100469.00;;;;31469183;28;20086;-74
2021/12/25 01:06:56;;;;;;;0.28;0.28;;;6.60;95.60;5.00;100465.00;;;;31375679;28;20144;-74
2021/12/25 01:53:11;;;;;;;0.30;0.30;;;5.50;95.20;4.10;100464.00;;;;31327149;28;20052;-74
2021/12/25 02:08:17;;;;;;;0.20;0.20;;;5.30;95.30;3.90;100458.00;;;;31391396;28;20407;-74
2021/12/25 02:23:23;;;;;;;0.30;0.30;;;5.10;95.20;3.50;100443.00;;;;31398844;28;20032;-76
2021/12/25 02:38:26;;;;;;;0.30;0.30;;;4.90;95.30;3.30;100429.00;;;;31376075;28;20055;-75
2021/12/25 02:53:27;;;;;;;0.30;0.30;;;4.60;95.10;3.10;100455.00;;;;31392426;28;20040;-74
2021/12/25 03:08:30;;;;;;;0.30;0.30;;;4.50;95.10;3.00;100467.00;;;;31389295;28;20044;-75
2021/12/25 03:23:36;;;;;;;0.30;0.30;;;4.30;94.50;2.90;100498.00;;;;31397987;28;20041;-74
2021/12/25 03:38:37;;;;;;;3.42;3.17;;;4.30;94.80;2.70;100507.00;;;;31395618;28;20052;-75
2021/12/25 04:08:51;;;;;;;0.38;0.38;;;3.90;94.40;2.40;100500.00;;;;31389492;28;20479;-74
2021/12/25 04:23:56;;;;;;;0.30;0.30;;;3.80;94.20;2.20;100521.00;;;;31376028;28;20504;-74
2021/12/25 05:09:37;;;;;;;0.25;0.25;;;3.30;94.60;1.80;100556.00;;;;31384751;28;20275;-75
2021/12/25 05:24:42;;;;;;;0.30;0.30;;;3.30;95.00;1.70;100550.00;;;;31376993;28;20052;-75
2021/12/25 05:39:50;;;;;;;0.40;0.40;;;3.90;94.60;1.50;100571.00;;;;31391446;28;20083;-75
2021/12/25 05:54:55;;;;;;;0.20;0.20;;;2.80;94.30;1.20;100593.00;;;;31385055;28;20037;-75
2021/12/25 06:10:16;;;;;;;0.20;0.20;;;2.70;94.30;1.00;100606.00;;;;31399073;28;20099;-74
2021/12/25 06:25:17;;;;;;;0.40;0.40;;;2.60;94.30;0.60;100623.00;;;;31375814;28;20041;-74
2021/12/25 06:40:25;;;;;;;0.32;0.32;;;;;0.20;100627.00;;;;31381291;28;20096;-73
2021/12/25 07:01:45;;;;;;;0.32;0.32;;;1.60;93.40;0.00;100631.00;;;;31181708;28;21202;-74
2021/12/25 07:17:05;;;;;;;0.30;0.30;;;1.60;93.80;-0.10;100647.00;;;;31145504;28;20076;-73
2021/12/25 07:33:07;;;;;;;0.30;0.30;;;1.40;93.20;-0.40;100664.00;;;;31125195;28;20144;-73
2021/12/25 07:48:08;;;;;;;0.30;0.30;;;1.20;93.40;-0.60;100674.00;;;;31131137;28;20556;-74
2021/12/25 08:03:10;;;;;;;0.40;0.40;;;0.90;93.30;-0.70;100685.00;;;;30985262;28;20046;-74
2021/12/25 08:18:11;;;;;;;1.13;1.13;;;0.90;93.30;-0.80;100703.00;;;;30932363;28;20172;-75
2021/12/25 08:33:33;;;;;;;0.50;0.50;;;0.70;93.20;-1.00;100712.00;;;;30929681;28;20154;-74
2021/12/25 08:48:53;;;;;;;0.30;0.30;;;0.60;93.00;-1.00;100731.00;;;;30913960;28;20109;-76
2021/12/25 09:03:55;;;;;;;0.30;0.30;;;0.60;92.90;-1.20;100728.00;;;;30962804;28;20046;-74
2021/12/25 09:18:56;;;;;;;0.40;0.40;;;0.20;93.30;-1.20;100769.00;;;;30924575;28;20149;-74
2021/12/25 09:33:57;;;;;;;0.32;0.32;;;0.40;92.80;-1.30;100755.00;;;;30937245;28;20070;-73
2021/12/25 09:48:58;;;;;;;0.43;0.43;;;0.30;92.80;-1.40;100764.00;;;;30935986;28;20084;-73
2021/12/25 10:04:00;;;;;;;0.40;0.40;;;0.30;92.60;-1.20;100778.00;;;;30925045;28;20473;-73
2021/12/25 10:19:23;;;;;;;0.40;0.40;;;0.50;91.30;-1.10;100761.00;;;;30946141;28;20112;-74
2021/12/25 10:34:30;;;;;;;0.40;0.40;;;0.60;91.40;-0.80;100765.00;;;;30895295;28;20567;-74
2021/12/25 10:49:35;;;;;;;0.30;0.30;;;0.80;90.40;-0.70;100763.00;;;;30909773;28;20105;-74
2021/12/25 11:04:39;;;;;;;0.30;0.30;;;0.70;89.90;-0.40;100751.00;;;;30951276;28;20431;-74
2021/12/25 11:19:57;;;;;;;0.30;0.30;;;1.00;87.60;-0.20;100745.00;;;;30910602;28;20042;-75
2021/12/25 11:35:01;;;;;;;0.30;0.30;;;1.30;84.60;0.10;100771.00;;;;30908961;28;20093;-75
2021/12/25 11:50:10;;;;;;;0.40;0.40;;;1.90;85.10;0.60;100763.00;;;;30911833;28;20054;-75
2021/12/25 12:05:29;;;;;;;0.30;0.30;;;2.00;82.30;0.60;100765.00;;;;30946467;28;20039;-75
2021/12/25 12:20:40;;;;;;;0.30;0.30;;;2.10;82.40;1.00;100779.00;;;;30918373;28;20077;-76
2021/12/25 12:35:51;;;;;;;0.40;0.40;;;2.90;82.80;0.90;100789.00;;;;30964245;28;20593;-76
2021/12/25 12:50:55;;;;;;;0.30;0.30;;;2.40;83.10;0.90;100775.00;;;;30931879;28;20522;-76
2021/12/25 13:06:15;;;;;;;0.32;0.32;;;2.50;82.10;0.90;100756.00;;;;30938654;28;20062;-77
2021/12/25 13:21:25;;;;;;;0.40;0.40;;;2.40;80.20;1.10;100768.00;;;;30902392;28;20043;-75
2021/12/25 13:36:36;;;;;;;0.40;0.40;;;2.30;79.30;1.10;100774.00;;;;30933261;28;20053;-76
2021/12/25 13:51:42;;;;;;;0.30;0.30;;;2.50;77.90;0.90;100740.00;;;;30897506;28;20058;-76
2021/12/25 14:23:25;;;;;;;0.40;0.40;;;2.10;78.20;0.50;100742.00;;;;30906865;28;20053;-74
2021/12/25 14:38:39;;;;;;;0.47;0.47;;;1.80;77.80;0.20;100763.00;;;;30901650;28;20049;-74
2021/12/25 14:53:58;;;;;;;0.30;0.30;;;1.60;77.10;-0.10;100772.00;;;;30915368;28;20545;-74
2021/12/25 15:09:16;;;;;;;0.50;0.50;;;1.50;77.40;-0.30;100779.00;;;;30922564;28;20774;-74
2021/12/25 15:24:26;;;;;;;0.30;0.30;;;1.30;78.90;-0.60;100790.00;;;;30946241;28;20664;-74
2021/12/25 15:39:34;;;;;;;0.40;0.40;;;1.00;77.60;-0.90;100819.00;;;;30978873;28;20137;-74
2021/12/25 15:54:38;;;;;;;0.30;0.30;;;0.60;79.10;-1.10;100828.00;;;;30948926;28;20473;-74
2021/12/25 16:09:40;;;;;;;0.40;0.40;;;0.50;77.70;-1.20;100832.00;;;;30938885;28;20493;-74
2021/12/25 16:24:42;;;;;;;0.32;0.32;;;0.70;79.40;-1.40;100858.00;;;;30958878;28;20112;-74
2021/12/25 16:39:43;;;;;;;0.40;0.40;;;0.30;77.80;-1.50;100853.00;;;;30927102;28;20077;-75
2021/12/25 16:54:45;;;;;;;0.30;0.30;;;0.00;80.40;-1.70;100859.00;;;;30926510;28;20054;-75
2021/12/25 17:09:47;;;;;;;0.50;0.50;;;0.00;77.60;-1.80;100852.00;;;;30918638;28;20058;-75
2021/12/25 17:24:53;;;;;;;0.43;0.43;;;-0.10;77.90;-1.90;100862.00;;;;30935832;28;20109;-74
2021/12/25 17:39:54;;;;;;;0.50;0.50;;;-0.20;78.10;-2.00;100871.00;;;;30914747;28;20042;-74
2021/12/25 17:54:55;;;;;;;0.40;0.40;;;-0.40;76.70;-2.10;100846.00;;;;30906713;28;20062;-75
2021/12/25 18:09:58;;;;;;;0.40;0.40;;;-0.50;76.70;-2.20;100830.00;;;;30940633;28;20414;-73
2021/12/25 18:24:59;;;;;;;0.50;0.50;;;-0.50;77.90;-2.30;100839.00;;;;30937916;28;20537;-73
2021/12/25 18:40:02;;;;;;;0.47;0.47;;;-0.60;76.80;-2.40;100824.00;;;;30928792;28;20061;-72
2021/12/25 18:55:06;;;;;;;0.40;0.40;;;-0.80;77.30;-2.50;100847.00;;;;30934799;28;20057;-72
2021/12/25 19:10:12;;;;;;;0.50;0.50;;;-0.70;78.10;-2.50;100845.00;;;;30913128;28;20057;-73
2021/12/25 19:25:13;;;;;;;0.50;0.50;;;-0.80;77.30;-2.60;100836.00;;;;30898689;28;20055;-71
2021/12/25 19:40:21;;;;;;;0.40;0.40;;;-0.90;75.60;-2.60;100844.00;;;;30903755;28;20041;-71
2021/12/25 19:55:26;;;;;;;0.30;0.30;;;-0.80;74.80;-2.50;100821.00;;;;30901160;28;20050;-71
2021/12/25 20:10:28;;;;;;;0.50;0.50;;;-0.80;75.30;-2.50;100820.00;;;;30910487;28;20641;-70
2021/12/25 20:25:32;;;;;;;0.35;0.35;;;-0.80;75.10;-2.60;100817.00;;;;30912375;28;20155;-70
2021/12/25 20:40:35;;;;;;;0.40;0.40;;;-0.90;73.40;-2.60;100822.00;;;;30900811;28;21002;-70
2021/12/25 20:55:36;;;;;;;0.50;0.50;;;-0.90;73.20;-2.70;100814.00;;;;30936176;28;20066;-71
2021/12/25 21:10:41;;;;;;;0.50;0.50;;;-1.20;74.20;-2.80;100796.00;;;;30922600;28;20585;-69
2021/12/25 21:25:42;;;;;;;0.55;0.55;;;-1.20;73.20;-3.00;100804.00;;;;30930736;28;20053;-71
2021/12/25 21:40:46;;;;;;;0.45;0.45;;;-1.30;74.10;-3.10;100784.00;;;;30926209;28;20073;-71
2021/12/25 21:55:47;;;;;;;0.45;0.45;;;-1.30;73.00;-3.00;100787.00;;;;30916577;28;20726;-71
2021/12/25 22:10:48;;;;;;;0.40;0.40;;;-1.20;73.80;-2.90;100790.00;;;;30936139;28;20124;-72
2021/12/25 22:25:50;;;;;;;0.55;0.55;;;-1.20;73.10;-3.00;100786.00;;;;30914412;28;20061;-72
2021/12/25 22:40:54;;;;;;;0.30;0.30;;;-1.20;74.10;-3.00;100766.00;;;;30927085;28;20054;-71
2021/12/25 22:55:57;;;;;;;0.47;0.47;;;-1.30;73.30;-3.10;100751.00;;;;30890942;28;20054;-72
2021/12/25 23:11:03;;;;;;;0.50;0.50;;;-1.40;73.60;-3.20;100725.00;;;;30905143;28;20058;-72
2021/12/25 23:26:05;;;;;;;0.60;0.60;;;-1.60;72.90;-3.40;100727.00;;;;30886690;28;20144;-71
2021/12/25 23:41:06;;;;;;;0.43;0.43;;;-2.00;75.30;-3.50;100716.00;;;;30934252;28;20058;-70
2021/12/25 23:56:10;;;;;;;0.50;0.50;;;-1.70;72.80;-3.60;100708.00;;;;30940172;28;20633;-70
